sensor_id;sensor_type;location;lat;lon;timestamp;P1;durP1;ratioP1;P2;durP2;ratioP2
67500;SDS011;54349;52.528;19.760;2023-04-25T00:01:51;4.90;;;3.30;;
67500;SDS011;54349;52.528;19.760;2023-04-25T00:04:20;5.10;;;3.30;;
67500;SDS011;54349;52.528;19.760;2023-04-25T00:06:49;4.70;;;3.20;;
67500;SDS011;54349;52.528;19.760;2023-04-25T00:09:17;8.00;;;3.50;;
67500;SDS011;54349;52.528;19.760;2023-04-25T00:11:46;5.40;;;3.10;;
67500;SDS011;54349;52.528;19.760;2023-04-25T00:14:14;5.60;;;3.30;;
67500;SDS011;54349;52.528;19.760;2023-04-25T00:16:42;5.40;;;3.40;;
67500;SDS011;54349;52.528;19.760;2023-04-25T00:19:11;4.00;;;2.90;;
67500;SDS011;54349;52.528;19.760;2023-04-25T00:21:41;4.80;;;3.20;;
67500;SDS011;54349;52.528;19.760;2023-04-25T00:24:09;6.80;;;3.10;;
67500;SDS011;54349;52.528;19.760;2023-04-25T00:26:38;5.30;;;3.00;;
67500;SDS011;54349;52.528;19.760;2023-04-25T00:29:06;5.10;;;3.10;;
67500;SDS011;54349;52.528;19.760;2023-04-25T00:31:34;5.00;;;3.20;;
67500;SDS011;54349;52.528;19.760;2023-04-25T00:34:02;4.60;;;3.30;;
67500;SDS011;54349;52.528;19.760;2023-04-25T00:36:30;6.30;;;3.30;;
67500;SDS011;54349;52.528;19.760;2023-04-25T00:38:59;4.70;;;2.90;;
67500;SDS011;54349;52.528;19.760;2023-04-25T00:41:27;4.00;;;2.80;;
67500;SDS011;54349;52.528;19.760;2023-04-25T00:43:55;4.70;;;3.10;;
67500;SDS011;54349;52.528;19.760;2023-04-25T00:46:25;4.80;;;3.00;;
67500;SDS011;54349;52.528;19.760;2023-04-25T00:48:53;4.80;;;3.20;;
67500;SDS011;54349;52.528;19.760;2023-04-25T00:51:22;4.70;;;3.00;;
67500;SDS011;54349;52.528;19.760;2023-04-25T00:53:53;5.50;;;3.10;;
67500;SDS011;54349;52.528;19.760;2023-04-25T00:56:21;4.50;;;2.90;;
67500;SDS011;54349;52.528;19.760;2023-04-25T00:58:50;4.40;;;3.10;;
67500;SDS011;54349;52.528;19.760;2023-04-25T01:01:24;4.40;;;2.80;;
67500;SDS011;54349;52.528;19.760;2023-04-25T01:03:53;4.20;;;2.70;;
67500;SDS011;54349;52.528;19.760;2023-04-25T01:06:23;6.00;;;3.20;;
67500;SDS011;54349;52.528;19.760;2023-04-25T01:08:51;5.10;;;3.20;;
67500;SDS011;54349;52.528;19.760;2023-04-25T01:11:19;4.30;;;3.00;;
67500;SDS011;54349;52.528;19.760;2023-04-25T01:13:48;4.80;;;2.90;;
67500;SDS011;54349;52.528;19.760;2023-04-25T01:16:16;4.60;;;2.90;;
67500;SDS011;54349;52.528;19.760;2023-04-25T01:18:45;5.10;;;2.80;;
67500;SDS011;54349;52.528;19.760;2023-04-25T01:21:14;4.50;;;2.90;;
67500;SDS011;54349;52.528;19.760;2023-04-25T01:23:42;4.70;;;3.00;;
67500;SDS011;54349;52.528;19.760;2023-04-25T01:26:11;4.50;;;2.90;;
67500;SDS011;54349;52.528;19.760;2023-04-25T01:28:40;4.70;;;3.00;;
67500;SDS011;54349;52.528;19.760;2023-04-25T01:31:12;4.30;;;2.60;;
67500;SDS011;54349;52.528;19.760;2023-04-25T01:33:40;4.60;;;2.70;;
67500;SDS011;54349;52.528;19.760;2023-04-25T01:36:09;5.50;;;3.20;;
67500;SDS011;54349;52.528;19.760;2023-04-25T01:38:38;4.70;;;2.90;;
67500;SDS011;54349;52.528;19.760;2023-04-25T01:41:07;4.80;;;2.80;;
67500;SDS011;54349;52.528;19.760;2023-04-25T01:43:35;4.20;;;2.80;;
67500;SDS011;54349;52.528;19.760;2023-04-25T01:46:03;4.40;;;2.70;;
67500;SDS011;54349;52.528;19.760;2023-04-25T01:48:32;4.10;;;2.70;;
67500;SDS011;54349;52.528;19.760;2023-04-25T01:51:00;4.60;;;2.70;;
67500;SDS011;54349;52.528;19.760;2023-04-25T01:53:30;4.70;;;2.90;;
67500;SDS011;54349;52.528;19.760;2023-04-25T01:55:59;4.60;;;2.60;;
67500;SDS011;54349;52.528;19.760;2023-04-25T01:58:32;4.20;;;2.80;;
67500;SDS011;54349;52.528;19.760;2023-04-25T02:01:06;4.60;;;2.80;;
67500;SDS011;54349;52.528;19.760;2023-04-25T02:03:39;4.80;;;2.70;;
67500;SDS011;54349;52.528;19.760;2023-04-25T02:06:15;3.70;;;2.20;;
67500;SDS011;54349;52.528;19.760;2023-04-25T02:08:45;4.30;;;2.70;;
67500;SDS011;54349;52.528;19.760;2023-04-25T02:11:14;4.60;;;2.50;;
67500;SDS011;54349;52.528;19.760;2023-04-25T02:13:48;3.50;;;2.30;;
67500;SDS011;54349;52.528;19.760;2023-04-25T02:16:25;4.80;;;2.60;;
67500;SDS011;54349;52.528;19.760;2023-04-25T02:18:53;4.90;;;2.80;;
67500;SDS011;54349;52.528;19.760;2023-04-25T02:21:22;4.10;;;2.30;;
67500;SDS011;54349;52.528;19.760;2023-04-25T02:23:50;5.30;;;2.60;;
67500;SDS011;54349;52.528;19.760;2023-04-25T02:26:20;5.10;;;2.80;;
67500;SDS011;54349;52.528;19.760;2023-04-25T02:28:51;3.70;;;2.60;;
67500;SDS011;54349;52.528;19.760;2023-04-25T02:31:19;4.00;;;2.60;;
67500;SDS011;54349;52.528;19.760;2023-04-25T02:33:48;4.50;;;2.50;;
67500;SDS011;54349;52.528;19.760;2023-04-25T02:36:17;4.50;;;2.80;;
67500;SDS011;54349;52.528;19.760;2023-04-25T02:38:45;3.90;;;2.40;;
67500;SDS011;54349;52.528;19.760;2023-04-25T02:41:13;3.90;;;2.50;;
67500;SDS011;54349;52.528;19.760;2023-04-25T02:43:41;4.10;;;2.70;;
67500;SDS011;54349;52.528;19.760;2023-04-25T02:46:09;4.40;;;2.40;;
67500;SDS011;54349;52.528;19.760;2023-04-25T02:48:40;4.60;;;2.40;;
67500;SDS011;54349;52.528;19.760;2023-04-25T02:51:09;4.00;;;2.40;;
67500;SDS011;54349;52.528;19.760;2023-04-25T02:53:37;4.20;;;2.50;;
67500;SDS011;54349;52.528;19.760;2023-04-25T02:56:05;4.90;;;2.70;;
67500;SDS011;54349;52.528;19.760;2023-04-25T02:58:33;4.20;;;2.50;;
67500;SDS011;54349;52.528;19.760;2023-04-25T03:01:02;4.00;;;2.50;;
67500;SDS011;54349;52.528;19.760;2023-04-25T03:03:30;4.70;;;2.60;;
67500;SDS011;54349;52.528;19.760;2023-04-25T03:05:59;5.00;;;2.80;;
67500;SDS011;54349;52.528;19.760;2023-04-25T03:08:29;3.20;;;2.30;;
67500;SDS011;54349;52.528;19.760;2023-04-25T03:11:00;5.70;;;2.70;;
67500;SDS011;54349;52.528;19.760;2023-04-25T03:13:29;4.10;;;2.40;;
67500;SDS011;54349;52.528;19.760;2023-04-25T03:15:57;4.60;;;2.60;;
67500;SDS011;54349;52.528;19.760;2023-04-25T03:18:26;4.00;;;2.50;;
67500;SDS011;54349;52.528;19.760;2023-04-25T03:20:54;4.70;;;2.50;;
67500;SDS011;54349;52.528;19.760;2023-04-25T03:23:24;4.70;;;2.80;;
67500;SDS011;54349;52.528;19.760;2023-04-25T03:25:54;3.80;;;2.50;;
67500;SDS011;54349;52.528;19.760;2023-04-25T03:28:24;4.00;;;2.40;;
67500;SDS011;54349;52.528;19.760;2023-04-25T03:30:53;5.10;;;2.50;;
67500;SDS011;54349;52.528;19.760;2023-04-25T03:33:21;3.90;;;2.60;;
67500;SDS011;54349;52.528;19.760;2023-04-25T03:35:49;3.80;;;2.50;;
67500;SDS011;54349;52.528;19.760;2023-04-25T03:38:18;4.30;;;2.70;;
67500;SDS011;54349;52.528;19.760;2023-04-25T03:40:46;4.10;;;2.20;;
67500;SDS011;54349;52.528;19.760;2023-04-25T03:43:19;4.30;;;2.60;;
67500;SDS011;54349;52.528;19.760;2023-04-25T03:45:54;3.90;;;2.40;;
67500;SDS011;54349;52.528;19.760;2023-04-25T03:48:23;3.70;;;2.50;;
67500;SDS011;54349;52.528;19.760;2023-04-25T03:50:54;4.10;;;2.30;;
67500;SDS011;54349;52.528;19.760;2023-04-25T03:53:23;3.70;;;2.30;;
67500;SDS011;54349;52.528;19.760;2023-04-25T03:56:11;4.00;;;2.50;;
67500;SDS011;54349;52.528;19.760;2023-04-25T03:58:39;4.30;;;2.40;;
67500;SDS011;54349;52.528;19.760;2023-04-25T04:01:07;5.20;;;2.40;;
67500;SDS011;54349;52.528;19.760;2023-04-25T04:03:37;3.60;;;2.40;;
67500;SDS011;54349;52.528;19.760;2023-04-25T04:06:07;4.40;;;2.60;;
67500;SDS011;54349;52.528;19.760;2023-04-25T04:08:39;4.70;;;2.70;;
67500;SDS011;54349;52.528;19.760;2023-04-25T04:11:09;4.20;;;2.50;;
67500;SDS011;54349;52.528;19.760;2023-04-25T04:13:37;4.10;;;2.40;;
67500;SDS011;54349;52.528;19.760;2023-04-25T04:16:07;4.10;;;2.40;;
67500;SDS011;54349;52.528;19.760;2023-04-25T04:18:36;3.20;;;2.20;;
67500;SDS011;54349;52.528;19.760;2023-04-25T04:21:04;4.50;;;2.50;;
67500;SDS011;54349;52.528;19.760;2023-04-25T04:23:36;4.70;;;2.60;;
67500;SDS011;54349;52.528;19.760;2023-04-25T04:26:07;4.70;;;2.40;;
67500;SDS011;54349;52.528;19.760;2023-04-25T04:28:49;4.40;;;2.20;;
67500;SDS011;54349;52.528;19.760;2023-04-25T04:31:57;4.30;;;2.40;;
67500;SDS011;54349;52.528;19.760;2023-04-25T04:34:26;4.10;;;2.30;;
67500;SDS011;54349;52.528;19.760;2023-04-25T04:36:55;3.40;;;2.20;;
67500;SDS011;54349;52.528;19.760;2023-04-25T04:39:23;3.70;;;2.10;;
67500;SDS011;54349;52.528;19.760;2023-04-25T04:42:04;2.80;;;2.00;;
67500;SDS011;54349;52.528;19.760;2023-04-25T04:44:47;3.30;;;2.00;;
67500;SDS011;54349;52.528;19.760;2023-04-25T04:47:48;3.30;;;2.00;;
67500;SDS011;54349;52.528;19.760;2023-04-25T04:50:36;3.40;;;2.10;;
67500;SDS011;54349;52.528;19.760;2023-04-25T04:56:21;4.70;;;2.00;;
67500;SDS011;54349;52.528;19.760;2023-04-25T04:58:55;4.70;;;2.20;;
67500;SDS011;54349;52.528;19.760;2023-04-25T05:01:44;3.80;;;2.10;;
67500;SDS011;54349;52.528;19.760;2023-04-25T05:04:22;3.50;;;2.30;;
67500;SDS011;54349;52.528;19.760;2023-04-25T05:07:05;5.50;;;2.10;;
67500;SDS011;54349;52.528;19.760;2023-04-25T05:09:54;3.70;;;2.10;;
67500;SDS011;54349;52.528;19.760;2023-04-25T05:13:00;3.70;;;1.80;;
67500;SDS011;54349;52.528;19.760;2023-04-25T05:15:38;3.00;;;2.10;;
67500;SDS011;54349;52.528;19.760;2023-04-25T05:18:29;5.00;;;2.20;;
67500;SDS011;54349;52.528;19.760;2023-04-25T05:21:16;2.80;;;2.00;;
67500;SDS011;54349;52.528;19.760;2023-04-25T05:23:55;2.70;;;1.90;;
67500;SDS011;54349;52.528;19.760;2023-04-25T05:26:42;3.80;;;2.00;;
67500;SDS011;54349;52.528;19.760;2023-04-25T05:29:28;3.40;;;1.80;;
67500;SDS011;54349;52.528;19.760;2023-04-25T05:32:15;4.10;;;2.00;;
67500;SDS011;54349;52.528;19.760;2023-04-25T05:34:46;2.70;;;1.80;;
67500;SDS011;54349;52.528;19.760;2023-04-25T05:37:26;4.90;;;2.10;;
67500;SDS011;54349;52.528;19.760;2023-04-25T05:39:58;2.70;;;1.90;;
67500;SDS011;54349;52.528;19.760;2023-04-25T05:42:55;4.50;;;2.00;;
67500;SDS011;54349;52.528;19.760;2023-04-25T05:45:43;4.50;;;1.80;;
67500;SDS011;54349;52.528;19.760;2023-04-25T05:48:26;4.10;;;2.00;;
67500;SDS011;54349;52.528;19.760;2023-04-25T05:51:09;5.00;;;2.10;;
67500;SDS011;54349;52.528;19.760;2023-04-25T05:53:55;4.50;;;1.90;;
67500;SDS011;54349;52.528;19.760;2023-04-25T05:56:24;4.20;;;2.00;;
67500;SDS011;54349;52.528;19.760;2023-04-25T05:58:53;4.90;;;1.90;;
67500;SDS011;54349;52.528;19.760;2023-04-25T06:01:22;5.50;;;2.10;;
67500;SDS011;54349;52.528;19.760;2023-04-25T06:03:51;3.50;;;1.80;;
67500;SDS011;54349;52.528;19.760;2023-04-25T06:06:21;3.10;;;1.70;;
67500;SDS011;54349;52.528;19.760;2023-04-25T06:08:49;2.80;;;1.70;;
67500;SDS011;54349;52.528;19.760;2023-04-25T06:11:18;4.10;;;1.80;;
67500;SDS011;54349;52.528;19.760;2023-04-25T06:13:46;5.50;;;1.80;;
67500;SDS011;54349;52.528;19.760;2023-04-25T06:16:16;3.10;;;1.80;;
67500;SDS011;54349;52.528;19.760;2023-04-25T06:18:45;4.30;;;1.80;;
67500;SDS011;54349;52.528;19.760;2023-04-25T06:21:15;3.10;;;1.90;;
67500;SDS011;54349;52.528;19.760;2023-04-25T06:23:43;5.10;;;1.60;;
67500;SDS011;54349;52.528;19.760;2023-04-25T06:26:18;2.80;;;1.70;;
67500;SDS011;54349;52.528;19.760;2023-04-25T06:28:47;2.70;;;1.60;;
67500;SDS011;54349;52.528;19.760;2023-04-25T06:31:15;2.20;;;1.50;;
67500;SDS011;54349;52.528;19.760;2023-04-25T06:33:44;2.70;;;1.80;;
67500;SDS011;54349;52.528;19.760;2023-04-25T06:36:13;3.40;;;1.60;;
67500;SDS011;54349;52.528;19.760;2023-04-25T06:38:42;3.80;;;1.60;;
67500;SDS011;54349;52.528;19.760;2023-04-25T06:41:11;3.60;;;1.80;;
67500;SDS011;54349;52.528;19.760;2023-04-25T06:43:41;3.20;;;1.60;;
67500;SDS011;54349;52.528;19.760;2023-04-25T06:48:45;2.10;;;1.40;;
67500;SDS011;54349;52.528;19.760;2023-04-25T06:51:14;3.50;;;1.80;;
67500;SDS011;54349;52.528;19.760;2023-04-25T06:53:42;4.90;;;2.00;;
67500;SDS011;54349;52.528;19.760;2023-04-25T06:59:06;2.60;;;1.60;;
67500;SDS011;54349;52.528;19.760;2023-04-25T07:01:39;2.90;;;1.70;;
67500;SDS011;54349;52.528;19.760;2023-04-25T07:04:16;2.70;;;1.60;;
67500;SDS011;54349;52.528;19.760;2023-04-25T07:06:52;1.60;;;1.40;;
67500;SDS011;54349;52.528;19.760;2023-04-25T07:09:24;2.90;;;1.60;;
67500;SDS011;54349;52.528;19.760;2023-04-25T07:11:52;3.30;;;1.50;;
67500;SDS011;54349;52.528;19.760;2023-04-25T07:14:21;1.70;;;1.50;;
67500;SDS011;54349;52.528;19.760;2023-04-25T07:16:49;2.90;;;1.50;;
67500;SDS011;54349;52.528;19.760;2023-04-25T07:19:18;2.70;;;1.60;;
67500;SDS011;54349;52.528;19.760;2023-04-25T07:21:47;1.80;;;1.50;;
67500;SDS011;54349;52.528;19.760;2023-04-25T07:24:16;2.50;;;1.50;;
67500;SDS011;54349;52.528;19.760;2023-04-25T07:26:46;4.00;;;1.60;;
67500;SDS011;54349;52.528;19.760;2023-04-25T07:29:45;3.20;;;1.70;;
67500;SDS011;54349;52.528;19.760;2023-04-25T07:32:13;3.20;;;1.60;;
67500;SDS011;54349;52.528;19.760;2023-04-25T07:34:43;3.00;;;1.60;;
67500;SDS011;54349;52.528;19.760;2023-04-25T07:37:12;3.30;;;1.80;;
67500;SDS011;54349;52.528;19.760;2023-04-25T07:39:54;2.90;;;1.60;;
67500;SDS011;54349;52.528;19.760;2023-04-25T07:42:22;3.20;;;1.60;;
67500;SDS011;54349;52.528;19.760;2023-04-25T07:44:51;2.20;;;1.50;;
67500;SDS011;54349;52.528;19.760;2023-04-25T07:47:19;2.40;;;1.50;;
67500;SDS011;54349;52.528;19.760;2023-04-25T07:49:48;2.70;;;1.50;;
67500;SDS011;54349;52.528;19.760;2023-04-25T07:52:17;3.50;;;1.70;;
67500;SDS011;54349;52.528;19.760;2023-04-25T07:54:50;4.40;;;1.70;;
67500;SDS011;54349;52.528;19.760;2023-04-25T07:57:22;2.80;;;1.80;;
67500;SDS011;54349;52.528;19.760;2023-04-25T07:59:53;3.30;;;1.90;;
67500;SDS011;54349;52.528;19.760;2023-04-25T08:02:22;2.80;;;1.60;;
67500;SDS011;54349;52.528;19.760;2023-04-25T08:04:50;2.30;;;1.70;;
67500;SDS011;54349;52.528;19.760;2023-04-25T08:07:20;1.90;;;1.60;;
67500;SDS011;54349;52.528;19.760;2023-04-25T08:09:51;1.80;;;1.50;;
67500;SDS011;54349;52.528;19.760;2023-04-25T08:12:26;2.20;;;1.50;;
67500;SDS011;54349;52.528;19.760;2023-04-25T08:14:56;2.00;;;1.40;;
67500;SDS011;54349;52.528;19.760;2023-04-25T08:17:27;5.00;;;1.80;;
67500;SDS011;54349;52.528;19.760;2023-04-25T08:19:55;2.70;;;1.60;;
67500;SDS011;54349;52.528;19.760;2023-04-25T08:22:29;3.50;;;1.70;;
67500;SDS011;54349;52.528;19.760;2023-04-25T08:25:21;3.20;;;1.70;;
67500;SDS011;54349;52.528;19.760;2023-04-25T08:27:51;3.00;;;1.70;;
67500;SDS011;54349;52.528;19.760;2023-04-25T08:30:21;2.50;;;1.60;;
67500;SDS011;54349;52.528;19.760;2023-04-25T08:32:50;2.30;;;1.60;;
67500;SDS011;54349;52.528;19.760;2023-04-25T08:35:38;2.40;;;1.60;;
67500;SDS011;54349;52.528;19.760;2023-04-25T08:38:06;2.10;;;1.70;;
67500;SDS011;54349;52.528;19.760;2023-04-25T08:40:37;2.30;;;1.60;;
67500;SDS011;54349;52.528;19.760;2023-04-25T08:43:13;2.60;;;1.70;;
67500;SDS011;54349;52.528;19.760;2023-04-25T08:45:42;1.90;;;1.40;;
67500;SDS011;54349;52.528;19.760;2023-04-25T08:48:17;3.80;;;1.70;;
67500;SDS011;54349;52.528;19.760;2023-04-25T08:50:50;2.60;;;1.80;;
67500;SDS011;54349;52.528;19.760;2023-04-25T08:53:31;2.80;;;1.60;;
67500;SDS011;54349;52.528;19.760;2023-04-25T08:56:05;3.70;;;1.70;;
67500;SDS011;54349;52.528;19.760;2023-04-25T08:58:35;3.20;;;1.80;;
67500;SDS011;54349;52.528;19.760;2023-04-25T09:01:06;3.40;;;1.80;;
67500;SDS011;54349;52.528;19.760;2023-04-25T09:03:41;3.90;;;1.80;;
67500;SDS011;54349;52.528;19.760;2023-04-25T09:06:12;1.70;;;1.50;;
67500;SDS011;54349;52.528;19.760;2023-04-25T09:08:42;2.60;;;1.60;;
67500;SDS011;54349;52.528;19.760;2023-04-25T09:11:10;3.00;;;1.70;;
67500;SDS011;54349;52.528;19.760;2023-04-25T09:13:40;2.40;;;1.70;;
67500;SDS011;54349;52.528;19.760;2023-04-25T09:16:32;2.00;;;1.50;;
67500;SDS011;54349;52.528;19.760;2023-04-25T09:22:10;3.00;;;1.60;;
67500;SDS011;54349;52.528;19.760;2023-04-25T09:24:41;4.20;;;1.70;;
67500;SDS011;54349;52.528;19.760;2023-04-25T09:27:17;2.60;;;1.60;;
67500;SDS011;54349;52.528;19.760;2023-04-25T09:29:57;2.90;;;1.70;;
67500;SDS011;54349;52.528;19.760;2023-04-25T09:32:39;2.20;;;1.70;;
67500;SDS011;54349;52.528;19.760;2023-04-25T09:35:10;2.80;;;1.60;;
67500;SDS011;54349;52.528;19.760;2023-04-25T09:37:40;2.20;;;1.70;;
67500;SDS011;54349;52.528;19.760;2023-04-25T09:40:30;1.60;;;1.50;;
67500;SDS011;54349;52.528;19.760;2023-04-25T09:43:19;2.60;;;1.60;;
67500;SDS011;54349;52.528;19.760;2023-04-25T09:45:51;2.10;;;1.50;;
67500;SDS011;54349;52.528;19.760;2023-04-25T09:48:27;2.50;;;1.40;;
67500;SDS011;54349;52.528;19.760;2023-04-25T09:53:47;2.50;;;1.60;;
67500;SDS011;54349;52.528;19.760;2023-04-25T09:56:39;3.20;;;1.60;;
67500;SDS011;54349;52.528;19.760;2023-04-25T09:59:11;2.40;;;1.70;;
67500;SDS011;54349;52.528;19.760;2023-04-25T10:01:40;2.60;;;1.80;;
67500;SDS011;54349;52.528;19.760;2023-04-25T10:04:24;2.00;;;1.60;;
67500;SDS011;54349;52.528;19.760;2023-04-25T10:07:08;2.10;;;1.50;;
67500;SDS011;54349;52.528;19.760;2023-04-25T10:09:38;2.20;;;1.60;;
67500;SDS011;54349;52.528;19.760;2023-04-25T10:12:08;2.10;;;1.60;;
67500;SDS011;54349;52.528;19.760;2023-04-25T10:14:38;2.00;;;1.50;;
67500;SDS011;54349;52.528;19.760;2023-04-25T10:17:07;4.40;;;1.80;;
67500;SDS011;54349;52.528;19.760;2023-04-25T10:19:39;2.10;;;1.50;;
67500;SDS011;54349;52.528;19.760;2023-04-25T10:22:20;2.30;;;1.50;;
67500;SDS011;54349;52.528;19.760;2023-04-25T10:24:57;3.10;;;1.60;;
67500;SDS011;54349;52.528;19.760;2023-04-25T10:27:30;2.40;;;1.50;;
67500;SDS011;54349;52.528;19.760;2023-04-25T10:32:42;3.60;;;1.70;;
67500;SDS011;54349;52.528;19.760;2023-04-25T10:38:08;1.80;;;1.60;;
67500;SDS011;54349;52.528;19.760;2023-04-25T10:40:38;3.20;;;1.90;;
67500;SDS011;54349;52.528;19.760;2023-04-25T10:46:00;2.30;;;1.70;;
67500;SDS011;54349;52.528;19.760;2023-04-25T10:48:30;2.50;;;1.60;;
67500;SDS011;54349;52.528;19.760;2023-04-25T10:51:09;3.20;;;1.50;;
67500;SDS011;54349;52.528;19.760;2023-04-25T10:53:38;2.90;;;1.70;;
67500;SDS011;54349;52.528;19.760;2023-04-25T10:56:19;2.60;;;1.60;;
67500;SDS011;54349;52.528;19.760;2023-04-25T10:58:50;2.60;;;1.50;;
67500;SDS011;54349;52.528;19.760;2023-04-25T11:01:21;3.20;;;1.70;;
67500;SDS011;54349;52.528;19.760;2023-04-25T11:03:57;2.90;;;1.70;;
67500;SDS011;54349;52.528;19.760;2023-04-25T11:09:38;3.20;;;1.70;;
67500;SDS011;54349;52.528;19.760;2023-04-25T11:12:09;2.70;;;1.70;;
67500;SDS011;54349;52.528;19.760;2023-04-25T11:14:39;2.10;;;1.50;;
67500;SDS011;54349;52.528;19.760;2023-04-25T11:17:09;2.80;;;1.60;;
67500;SDS011;54349;52.528;19.760;2023-04-25T11:19:39;3.80;;;1.90;;
67500;SDS011;54349;52.528;19.760;2023-04-25T11:22:07;3.50;;;1.90;;
67500;SDS011;54349;52.528;19.760;2023-04-25T11:24:35;2.10;;;1.50;;
67500;SDS011;54349;52.528;19.760;2023-04-25T11:27:05;3.00;;;2.10;;
67500;SDS011;54349;52.528;19.760;2023-04-25T11:29:36;2.80;;;1.70;;
67500;SDS011;54349;52.528;19.760;2023-04-25T11:32:04;2.30;;;1.70;;
67500;SDS011;54349;52.528;19.760;2023-04-25T11:34:33;2.00;;;1.60;;
67500;SDS011;54349;52.528;19.760;2023-04-25T11:37:02;2.40;;;1.60;;
67500;SDS011;54349;52.528;19.760;2023-04-25T11:39:31;2.70;;;1.80;;
67500;SDS011;54349;52.528;19.760;2023-04-25T11:41:59;3.60;;;1.70;;
67500;SDS011;54349;52.528;19.760;2023-04-25T11:44:32;4.40;;;1.80;;
67500;SDS011;54349;52.528;19.760;2023-04-25T11:47:01;1.80;;;1.50;;
67500;SDS011;54349;52.528;19.760;2023-04-25T11:49:31;3.10;;;1.60;;
67500;SDS011;54349;52.528;19.760;2023-04-25T11:51:59;3.40;;;1.80;;
67500;SDS011;54349;52.528;19.760;2023-04-25T11:54:28;3.10;;;1.90;;
67500;SDS011;54349;52.528;19.760;2023-04-25T11:56:56;2.70;;;1.70;;
67500;SDS011;54349;52.528;19.760;2023-04-25T11:59:25;4.00;;;1.80;;
67500;SDS011;54349;52.528;19.760;2023-04-25T12:01:54;4.10;;;1.90;;
67500;SDS011;54349;52.528;19.760;2023-04-25T12:04:23;3.70;;;1.60;;
67500;SDS011;54349;52.528;19.760;2023-04-25T12:06:54;2.80;;;1.60;;
67500;SDS011;54349;52.528;19.760;2023-04-25T12:09:31;2.90;;;1.70;;
67500;SDS011;54349;52.528;19.760;2023-04-25T12:12:00;6.40;;;1.80;;
67500;SDS011;54349;52.528;19.760;2023-04-25T12:14:35;3.40;;;1.70;;
67500;SDS011;54349;52.528;19.760;2023-04-25T12:17:04;2.40;;;1.90;;
67500;SDS011;54349;52.528;19.760;2023-04-25T12:19:37;2.90;;;1.70;;
67500;SDS011;54349;52.528;19.760;2023-04-25T12:24:50;2.80;;;2.00;;
67500;SDS011;54349;52.528;19.760;2023-04-25T12:27:21;3.20;;;2.00;;
67500;SDS011;54349;52.528;19.760;2023-04-25T12:29:56;3.70;;;1.90;;
67500;SDS011;54349;52.528;19.760;2023-04-25T12:32:24;3.90;;;2.10;;
67500;SDS011;54349;52.528;19.760;2023-04-25T12:34:54;3.10;;;1.80;;
67500;SDS011;54349;52.528;19.760;2023-04-25T12:37:22;2.00;;;1.70;;
67500;SDS011;54349;52.528;19.760;2023-04-25T12:39:50;5.00;;;2.00;;
67500;SDS011;54349;52.528;19.760;2023-04-25T12:42:19;2.40;;;1.70;;
67500;SDS011;54349;52.528;19.760;2023-04-25T12:44:47;2.20;;;1.70;;
67500;SDS011;54349;52.528;19.760;2023-04-25T12:47:15;2.40;;;1.80;;
67500;SDS011;54349;52.528;19.760;2023-04-25T12:49:44;2.90;;;1.80;;
67500;SDS011;54349;52.528;19.760;2023-04-25T12:52:12;3.50;;;1.80;;
67500;SDS011;54349;52.528;19.760;2023-04-25T12:54:40;4.70;;;1.80;;
67500;SDS011;54349;52.528;19.760;2023-04-25T12:57:08;3.10;;;1.80;;
67500;SDS011;54349;52.528;19.760;2023-04-25T12:59:36;3.80;;;1.90;;
67500;SDS011;54349;52.528;19.760;2023-04-25T13:02:05;3.70;;;1.90;;
67500;SDS011;54349;52.528;19.760;2023-04-25T13:04:33;2.60;;;1.60;;
67500;SDS011;54349;52.528;19.760;2023-04-25T13:07:02;2.50;;;1.70;;
67500;SDS011;54349;52.528;19.760;2023-04-25T13:09:31;2.30;;;1.60;;
67500;SDS011;54349;52.528;19.760;2023-04-25T13:11:59;2.80;;;1.80;;
67500;SDS011;54349;52.528;19.760;2023-04-25T13:14:27;3.20;;;1.70;;
67500;SDS011;54349;52.528;19.760;2023-04-25T13:16:55;2.30;;;1.60;;
67500;SDS011;54349;52.528;19.760;2023-04-25T13:19:24;2.50;;;1.90;;
67500;SDS011;54349;52.528;19.760;2023-04-25T13:21:52;2.50;;;1.60;;
67500;SDS011;54349;52.528;19.760;2023-04-25T13:24:21;2.30;;;1.80;;
67500;SDS011;54349;52.528;19.760;2023-04-25T13:26:49;3.30;;;1.70;;
67500;SDS011;54349;52.528;19.760;2023-04-25T13:29:17;2.70;;;1.90;;
67500;SDS011;54349;52.528;19.760;2023-04-25T13:31:45;3.40;;;1.90;;
67500;SDS011;54349;52.528;19.760;2023-04-25T13:34:14;2.30;;;1.90;;
67500;SDS011;54349;52.528;19.760;2023-04-25T13:36:42;3.20;;;1.70;;
67500;SDS011;54349;52.528;19.760;2023-04-25T13:39:11;3.50;;;1.90;;
67500;SDS011;54349;52.528;19.760;2023-04-25T13:41:39;2.90;;;1.70;;
67500;SDS011;54349;52.528;19.760;2023-04-25T13:44:07;4.10;;;1.80;;
67500;SDS011;54349;52.528;19.760;2023-04-25T13:46:35;2.50;;;1.80;;
67500;SDS011;54349;52.528;19.760;2023-04-25T13:49:07;2.90;;;1.80;;
67500;SDS011;54349;52.528;19.760;2023-04-25T13:51:40;2.20;;;1.70;;
67500;SDS011;54349;52.528;19.760;2023-04-25T13:54:10;2.30;;;1.70;;
67500;SDS011;54349;52.528;19.760;2023-04-25T13:56:38;3.30;;;1.80;;
67500;SDS011;54349;52.528;19.760;2023-04-25T13:59:06;3.60;;;1.80;;
67500;SDS011;54349;52.528;19.760;2023-04-25T14:01:34;2.30;;;1.70;;
67500;SDS011;54349;52.528;19.760;2023-04-25T14:04:04;1.70;;;1.60;;
67500;SDS011;54349;52.528;19.760;2023-04-25T14:06:32;2.40;;;1.60;;
67500;SDS011;54349;52.528;19.760;2023-04-25T14:09:02;4.40;;;1.90;;
67500;SDS011;54349;52.528;19.760;2023-04-25T14:11:33;1.80;;;1.60;;
67500;SDS011;54349;52.528;19.760;2023-04-25T14:14:01;2.60;;;1.70;;
67500;SDS011;54349;52.528;19.760;2023-04-25T14:16:30;2.20;;;1.60;;
67500;SDS011;54349;52.528;19.760;2023-04-25T14:18:59;1.70;;;1.60;;
67500;SDS011;54349;52.528;19.760;2023-04-25T14:21:28;4.90;;;1.80;;
67500;SDS011;54349;52.528;19.760;2023-04-25T14:23:59;1.70;;;1.50;;
67500;SDS011;54349;52.528;19.760;2023-04-25T14:26:27;2.10;;;1.60;;
67500;SDS011;54349;52.528;19.760;2023-04-25T14:28:56;2.40;;;1.80;;
67500;SDS011;54349;52.528;19.760;2023-04-25T14:31:24;2.30;;;1.70;;
67500;SDS011;54349;52.528;19.760;2023-04-25T14:33:53;3.10;;;1.70;;
67500;SDS011;54349;52.528;19.760;2023-04-25T14:36:27;2.70;;;1.60;;
67500;SDS011;54349;52.528;19.760;2023-04-25T14:38:56;3.00;;;1.80;;
67500;SDS011;54349;52.528;19.760;2023-04-25T14:41:25;3.00;;;2.10;;
67500;SDS011;54349;52.528;19.760;2023-04-25T14:43:53;3.10;;;1.80;;
67500;SDS011;54349;52.528;19.760;2023-04-25T14:46:22;3.20;;;1.90;;
67500;SDS011;54349;52.528;19.760;2023-04-25T14:48:51;3.20;;;1.90;;
67500;SDS011;54349;52.528;19.760;2023-04-25T14:51:20;2.50;;;1.80;;
67500;SDS011;54349;52.528;19.760;2023-04-25T14:53:48;2.10;;;1.70;;
67500;SDS011;54349;52.528;19.760;2023-04-25T14:56:19;3.40;;;1.80;;
67500;SDS011;54349;52.528;19.760;2023-04-25T14:58:47;3.20;;;1.80;;
67500;SDS011;54349;52.528;19.760;2023-04-25T15:01:15;4.40;;;1.60;;
67500;SDS011;54349;52.528;19.760;2023-04-25T15:03:45;4.00;;;1.80;;
67500;SDS011;54349;52.528;19.760;2023-04-25T15:06:14;2.50;;;1.70;;
67500;SDS011;54349;52.528;19.760;2023-04-25T15:08:44;2.60;;;1.60;;
67500;SDS011;54349;52.528;19.760;2023-04-25T15:11:12;3.30;;;1.70;;
67500;SDS011;54349;52.528;19.760;2023-04-25T15:13:40;1.70;;;1.60;;
67500;SDS011;54349;52.528;19.760;2023-04-25T15:16:08;3.20;;;2.00;;
67500;SDS011;54349;52.528;19.760;2023-04-25T15:18:38;4.00;;;1.70;;
67500;SDS011;54349;52.528;19.760;2023-04-25T15:21:06;2.60;;;1.70;;
67500;SDS011;54349;52.528;19.760;2023-04-25T15:23:35;2.20;;;1.60;;
67500;SDS011;54349;52.528;19.760;2023-04-25T15:26:03;3.40;;;1.90;;
67500;SDS011;54349;52.528;19.760;2023-04-25T15:28:31;2.80;;;1.80;;